Time;durP1;ratioP1;P1;durP2;ratioP2;P2;SDS_P1;SDS_P2;PMS_P1;PMS_P2;Temp;Humidity;BMP_temperature;BMP_pressure;BME280_temperature;BME280_humidity;BME280_pressure;Samples;Min_cycle;Max_cycle;Signal;HPM_P1;HPM_P2
2021/04/14 00:01:32;;;;;;;10.57;8.48;;;4.20;63.70;;;;;;5093035;28;20400;-69
2021/04/14 00:03:58;;;;;;;10.52;8.77;;;4.20;63.60;;;;;;5091463;28;20127;-69
2021/04/14 00:06:24;;;;;;;9.90;7.63;;;4.10;63.60;;;;;;5109216;28;20046;-68
2021/04/14 00:08:51;;;;;;;11.40;8.13;;;4.10;63.60;;;;;;5092252;28;20036;-69
2021/04/14 00:11:19;;;;;;;9.75;7.35;;;4.10;63.60;;;;;;5091914;28;20040;-68
2021/04/14 00:13:45;;;;;;;10.50;8.40;;;4.00;63.70;;;;;;5092428;28;20440;-69
2021/04/14 00:16:16;;;;;;;9.88;8.00;;;4.10;63.80;;;;;;5074443;28;20052;-68
2021/04/14 00:18:42;;;;;;;11.27;7.63;;;4.00;64.10;;;;;;5098766;28;20047;-69
2021/04/14 00:21:08;;;;;;;9.77;7.72;;;4.00;64.20;;;;;;5074793;28;20404;-69
2021/04/14 00:23:33;;;;;;;12.38;8.25;;;4.00;64.30;;;;;;5092953;28;20051;-68
2021/04/14 00:25:59;;;;;;;10.18;7.82;;;3.90;64.20;;;;;;5092300;28;20482;-68
2021/04/14 00:28:25;;;;;;;10.32;7.47;;;3.90;64.40;;;;;;5091966;28;20044;-69
2021/04/14 00:30:51;;;;;;;9.60;7.70;;;3.90;64.60;;;;;;5092256;28;20123;-69
2021/04/14 00:33:17;;;;;;;10.77;7.70;;;3.90;64.60;;;;;;5091437;28;20044;-69
2021/04/14 00:35:45;;;;;;;10.50;7.53;;;3.90;64.60;;;;;;5092139;28;20444;-68
2021/04/14 00:38:12;;;;;;;11.02;7.82;;;3.80;64.50;;;;;;5107909;28;20131;-68
2021/04/14 00:40:42;;;;;;;11.65;7.43;;;3.80;64.60;;;;;;5091697;28;20051;-68
2021/04/14 00:43:30;;;;;;;7.38;6.53;;;3.80;64.70;;;;;;5090761;28;20129;-70
2021/04/14 00:45:56;;;;;;;10.68;7.60;;;3.80;65.00;;;;;;5071810;28;20051;-71
2021/04/14 00:48:21;;;;;;;8.95;6.95;;;3.80;64.70;;;;;;5071473;28;20049;-69
2021/04/14 00:50:48;;;;;;;9.57;7.00;;;3.80;64.60;;;;;;5073008;28;20037;-69
2021/04/14 00:53:14;;;;;;;11.05;6.47;;;3.70;64.70;;;;;;5072198;28;20391;-68
2021/04/14 00:55:40;;;;;;;9.77;6.43;;;3.70;64.80;;;;;;5089812;28;20078;-69
2021/04/14 00:58:08;;;;;;;10.60;6.63;;;3.70;64.90;;;;;;5091188;28;20126;-70
2021/04/14 01:00:36;;;;;;;10.07;6.88;;;3.60;65.00;;;;;;5091998;28;20119;-68
2021/04/14 01:03:03;;;;;;;9.52;6.90;;;3.70;65.20;;;;;;5092622;28;20051;-70
2021/04/14 01:05:30;;;;;;;8.00;7.05;;;3.60;65.20;;;;;;5108680;28;20411;-69
2021/04/14 01:07:55;;;;;;;9.95;7.18;;;3.60;65.40;;;;;;5091484;28;20472;-68
2021/04/14 01:10:23;;;;;;;12.45;7.57;;;3.60;65.30;;;;;;5071055;28;20044;-69
2021/04/14 01:12:50;;;;;;;10.98;6.97;;;3.60;65.20;;;;;;5072963;28;20120;-69
2021/04/14 01:15:19;;;;;;;8.70;7.05;;;3.60;65.50;;;;;;5054189;28;20123;-69
2021/04/14 01:17:45;;;;;;;11.55;7.55;;;3.50;65.40;;;;;;5071222;28;20060;-70
2021/04/14 01:20:11;;;;;;;8.70;6.70;;;3.50;65.60;;;;;;5070906;28;20045;-71
2021/04/14 01:22:39;;;;;;;12.13;7.63;;;3.50;65.40;;;;;;5073076;28;20072;-69
2021/04/14 01:25:10;;;;;;;10.82;7.88;;;3.50;65.60;;;;;;5070606;28;20062;-69
2021/04/14 01:27:35;;;;;;;11.38;7.20;;;3.50;65.70;;;;;;5071233;28;20127;-68
2021/04/14 01:30:14;;;;;;;10.45;7.78;;;3.50;66.30;;;;;;5071784;28;20482;-70
2021/04/14 01:32:40;;;;;;;11.20;7.47;;;3.50;65.80;;;;;;5072054;28;20174;-69
2021/04/14 01:35:07;;;;;;;10.55;7.53;;;3.50;65.70;;;;;;5070745;28;20507;-70
2021/04/14 01:37:33;;;;;;;11.90;8.10;;;3.40;65.80;;;;;;5078417;28;20040;-70
2021/04/14 01:39:58;;;;;;;10.90;7.88;;;3.40;65.70;;;;;;5089701;28;20109;-69
2021/04/14 01:42:24;;;;;;;11.40;8.02;;;3.40;65.70;;;;;;5092250;28;20527;-70
2021/04/14 01:44:56;;;;;;;10.93;7.90;;;3.40;65.90;;;;;;5092929;28;20397;-69
2021/04/14 01:47:21;;;;;;;9.87;7.40;;;3.40;66.10;;;;;;5092245;28;20469;-69
2021/04/14 01:49:47;;;;;;;10.27;8.35;;;3.40;66.00;;;;;;5094172;28;20074;-69
2021/04/14 01:52:13;;;;;;;10.75;8.38;;;3.40;66.20;;;;;;5092043;28;20038;-70
2021/04/14 01:54:39;;;;;;;11.10;8.75;;;3.40;66.20;;;;;;5094053;28;20404;-69
2021/04/14 01:57:06;;;;;;;12.07;9.18;;;3.40;66.30;;;;;;5092126;28;20067;-71
2021/04/14 01:59:32;;;;;;;12.52;8.98;;;3.40;66.40;;;;;;5092530;28;20044;-70
2021/04/14 02:01:57;;;;;;;13.40;9.20;;;3.30;66.40;;;;;;5092696;28;20507;-69
2021/04/14 02:04:23;;;;;;;12.00;8.95;;;3.30;66.50;;;;;;5093136;28;20044;-70
2021/04/14 02:06:49;;;;;;;12.63;9.10;;;3.30;66.60;;;;;;5109688;28;20444;-70
2021/04/14 02:09:15;;;;;;;12.02;9.25;;;3.30;66.70;;;;;;5091798;28;20109;-70
2021/04/14 02:11:41;;;;;;;11.73;8.35;;;3.30;66.70;;;;;;5092571;28;20040;-70
2021/04/14 02:14:09;;;;;;;11.60;9.45;;;3.30;66.80;;;;;;5092234;28;20055;-71
2021/04/14 02:16:35;;;;;;;13.10;10.07;;;3.30;66.90;;;;;;5093280;28;20492;-70
2021/04/14 02:19:21;;;;;;;11.55;9.02;;;3.30;66.90;;;;;;5092043;28;20135;-70
2021/04/14 02:21:47;;;;;;;12.43;9.55;;;3.30;66.90;;;;;;5092034;28;20135;-70
2021/04/14 02:24:13;;;;;;;11.27;9.38;;;3.20;66.80;;;;;;5091347;28;20050;-70
2021/04/14 02:26:39;;;;;;;11.38;9.52;;;3.20;66.80;;;;;;5092445;28;20442;-70
2021/04/14 02:29:04;;;;;;;10.93;9.30;;;3.20;66.80;;;;;;5092198;28;20040;-70
2021/04/14 02:31:31;;;;;;;12.88;9.60;;;3.20;66.90;;;;;;5092570;28;20092;-70
2021/04/14 02:34:02;;;;;;;13.77;9.05;;;3.20;66.80;;;;;;5109128;28;20139;-70
2021/04/14 02:36:48;;;;;;;10.40;8.40;;;3.20;66.90;;;;;;5064818;28;20334;-70
2021/04/14 02:39:27;;;;;;;11.27;9.38;;;3.20;66.60;;;;;;5091323;28;20119;-69
2021/04/14 02:41:52;;;;;;;11.77;9.30;;;3.10;66.70;;;;;;5075249;28;20105;-69
2021/04/14 02:44:18;;;;;;;14.25;9.05;;;3.10;66.70;;;;;;5092332;28;20123;-69
2021/04/14 02:46:44;;;;;;;15.43;9.65;;;3.10;66.60;;;;;;5075058;28;20071;-70
2021/04/14 02:49:10;;;;;;;13.18;9.13;;;3.10;66.60;;;;;;5091628;28;20488;-70
2021/04/14 02:51:56;;;;;;;14.13;9.68;;;3.10;66.70;;;;;;5091470;28;20048;-69
2021/04/14 02:54:22;;;;;;;13.30;9.98;;;3.10;66.80;;;;;;5092006;28;20043;-70
2021/04/14 02:56:48;;;;;;;12.90;9.82;;;3.00;66.80;;;;;;5091635;28;20052;-70
2021/04/14 02:59:13;;;;;;;11.65;9.68;;;3.00;66.90;;;;;;5074413;28;20494;-71
2021/04/14 03:01:39;;;;;;;11.32;9.32;;;3.00;66.80;;;;;;5091398;28;20044;-69
2021/04/14 03:04:06;;;;;;;11.80;9.38;;;3.00;66.70;;;;;;5108574;28;20119;-69
2021/04/14 03:06:32;;;;;;;12.20;9.63;;;3.00;67.00;;;;;;5073925;28;20799;-70
2021/04/14 03:08:58;;;;;;;14.43;11.07;;;2.90;66.90;;;;;;5108721;27;20118;-69
2021/04/14 03:11:24;;;;;;;13.75;10.30;;;3.00;67.20;;;;;;5107081;28;20138;-70
2021/04/14 03:13:54;;;;;;;10.73;9.45;;;3.00;67.40;;;;;;5091325;28;20052;-69
2021/04/14 03:16:19;;;;;;;12.15;9.55;;;3.00;67.50;;;;;;5089643;28;20048;-70
2021/04/14 03:18:45;;;;;;;18.00;10.70;;;2.90;67.60;;;;;;5090961;28;20090;-70
2021/04/14 03:21:11;;;;;;;13.25;10.35;;;2.90;67.50;;;;;;5089863;28;20036;-70
2021/04/14 03:23:37;;;;;;;12.23;9.57;;;2.90;67.60;;;;;;5090309;28;20051;-70
2021/04/14 03:26:02;;;;;;;14.55;9.63;;;2.90;67.50;;;;;;5091060;28;20036;-69
2021/04/14 03:28:28;;;;;;;13.43;11.07;;;2.80;67.50;;;;;;5073048;28;20130;-69
2021/04/14 03:30:54;;;;;;;15.43;10.55;;;2.90;67.70;;;;;;5090480;28;20044;-70
2021/04/14 03:33:20;;;;;;;16.33;10.98;;;2.80;67.70;;;;;;5090183;28;20125;-70
2021/04/14 03:35:45;;;;;;;12.57;10.30;;;2.80;67.70;;;;;;5092027;28;20119;-70
2021/04/14 03:38:11;;;;;;;11.80;10.60;;;2.80;67.80;;;;;;5090626;28;20071;-69
2021/04/14 03:40:57;;;;;;;13.27;9.77;;;2.80;67.70;;;;;;5077290;28;20052;-69
2021/04/14 03:43:23;;;;;;;12.43;10.30;;;2.80;67.60;;;;;;5070862;28;20040;-71
2021/04/14 03:45:52;;;;;;;15.73;9.88;;;2.80;67.40;;;;;;5120682;27;20043;-69
2021/04/14 03:48:18;;;;;;;15.23;10.30;;;2.80;67.50;;;;;;5091506;28;20049;-70
2021/04/14 03:50:44;;;;;;;13.05;10.63;;;2.80;67.50;;;;;;5089647;28;20042;-70
2021/04/14 03:53:23;;;;;;;12.20;9.48;;;2.70;67.40;;;;;;5090139;28;20055;-69
2021/04/14 03:56:06;;;;;;;12.68;10.48;;;2.70;67.50;;;;;;5074718;28;20050;-70
2021/04/14 03:58:32;;;;;;;15.57;10.88;;;2.70;67.70;;;;;;5069463;28;20048;-70
2021/04/14 04:01:00;;;;;;;12.60;10.43;;;2.70;67.50;;;;;;5102898;28;20040;-70
2021/04/14 04:03:26;;;;;;;13.10;10.40;;;2.70;67.50;;;;;;5088672;28;20040;-69
2021/04/14 04:05:52;;;;;;;13.18;10.18;;;2.60;67.50;;;;;;5090223;28;20101;-69
2021/04/14 04:08:38;;;;;;;12.23;9.13;;;2.70;67.60;;;;;;5075907;28;20396;-70
2021/04/14 04:11:04;;;;;;;13.27;10.38;;;2.60;67.50;;;;;;5090184;28;20040;-69
2021/04/14 04:13:31;;;;;;;12.73;10.07;;;2.60;67.50;;;;;;5089637;28;20051;-70
2021/04/14 04:16:17;;;;;;;10.68;8.77;;;2.60;67.50;;;;;;5089963;28;20120;-69
2021/04/14 04:18:42;;;;;;;13.95;10.00;;;2.50;67.30;;;;;;5088590;28;20040;-70
2021/04/14 04:21:08;;;;;;;14.18;10.38;;;2.60;67.60;;;;;;5090126;28;20131;-70
2021/04/14 04:23:35;;;;;;;13.60;10.15;;;2.50;67.70;;;;;;5072460;28;20189;-70
2021/04/14 04:26:01;;;;;;;12.93;9.27;;;2.50;67.70;;;;;;5090002;28;20066;-69
2021/04/14 04:28:26;;;;;;;11.35;9.55;;;2.50;67.70;;;;;;5089947;28;20520;-70
2021/04/14 04:30:54;;;;;;;13.43;10.38;;;2.50;67.70;;;;;;5089829;28;20135;-69
2021/04/14 04:33:20;;;;;;;10.88;9.50;;;2.50;67.80;;;;;;5072958;28;20047;-69
2021/04/14 04:36:06;;;;;;;13.80;10.48;;;2.50;67.80;;;;;;5090447;28;20052;-69
2021/04/14 04:38:33;;;;;;;13.30;9.32;;;2.50;67.90;;;;;;5106142;28;20051;-70
2021/04/14 04:41:01;;;;;;;12.43;9.43;;;2.50;68.10;;;;;;5089936;28;20048;-70
2021/04/14 04:43:26;;;;;;;13.30;9.32;;;2.50;68.20;;;;;;5089220;28;20048;-71
2021/04/14 04:45:52;;;;;;;13.07;9.75;;;2.40;68.20;;;;;;5090902;28;20099;-70
2021/04/14 04:48:18;;;;;;;10.80;8.98;;;2.40;68.30;;;;;;5090001;28;20066;-69
2021/04/14 04:50:44;;;;;;;13.57;9.77;;;2.50;68.20;;;;;;5088924;28;20048;-70
2021/04/14 04:53:13;;;;;;;12.90;9.45;;;2.50;68.30;;;;;;5091050;28;20044;-70
2021/04/14 04:55:45;;;;;;;12.55;9.23;;;2.40;68.20;;;;;;5072117;28;20044;-69
2021/04/14 04:58:12;;;;;;;12.57;9.38;;;2.40;68.30;;;;;;5089658;28;20040;-69
2021/04/14 05:00:38;;;;;;;12.07;10.82;;;2.40;68.40;;;;;;5090197;28;20051;-70
2021/04/14 05:03:04;;;;;;;11.90;9.35;;;2.40;68.40;;;;;;5090920;28;20109;-70
2021/04/14 05:05:30;;;;;;;14.50;9.43;;;2.40;68.50;;;;;;5088927;28;20040;-71
2021/04/14 05:07:56;;;;;;;12.07;9.90;;;2.40;68.50;;;;;;5072448;28;20047;-69
2021/04/14 05:10:22;;;;;;;12.68;10.60;;;2.40;68.60;;;;;;5089367;28;20048;-69
2021/04/14 05:12:51;;;;;;;13.27;10.23;;;2.40;68.60;;;;;;5088683;28;20667;-69
2021/04/14 05:15:23;;;;;;;12.73;10.40;;;2.40;68.80;;;;;;5108680;28;20040;-69
2021/04/14 05:17:49;;;;;;;13.90;10.63;;;2.40;68.90;;;;;;5093913;28;20127;-70
2021/04/14 05:20:15;;;;;;;14.40;11.63;;;2.40;69.00;;;;;;5094508;28;20377;-68
2021/04/14 05:22:41;;;;;;;15.25;10.07;;;2.40;69.00;;;;;;5092743;28;20051;-70
2021/04/14 05:25:08;;;;;;;12.40;10.13;;;2.40;69.80;;;;;;5093671;28;20044;-69
2021/04/14 05:27:37;;;;;;;17.48;10.07;;;2.40;69.00;;;;;;5093318;28;20063;-69
2021/04/14 05:30:04;;;;;;;14.30;10.35;;;2.40;69.10;;;;;;5094239;28;20040;-69
2021/04/14 05:32:29;;;;;;;16.10;10.40;;;2.40;69.10;;;;;;5092838;28;20151;-70
2021/04/14 05:34:55;;;;;;;17.05;10.85;;;2.40;69.20;;;;;;5092319;28;20146;-69
2021/04/14 05:37:21;;;;;;;15.80;11.13;;;2.40;69.20;;;;;;5094275;28;20059;-69
2021/04/14 05:39:47;;;;;;;12.52;9.75;;;2.40;69.30;;;;;;5092096;28;20047;-69
2021/04/14 05:42:13;;;;;;;14.93;10.77;;;2.40;69.30;;;;;;5093079;28;20048;-69
2021/04/14 05:44:38;;;;;;;15.30;11.20;;;2.40;69.40;;;;;;5093286;28;20051;-70
2021/04/14 05:47:04;;;;;;;12.40;10.18;;;2.40;69.50;;;;;;5093033;28;20131;-68
2021/04/14 05:49:30;;;;;;;13.45;9.63;;;2.50;69.60;;;;;;5094219;28;20048;-69
2021/04/14 05:51:55;;;;;;;14.65;10.05;;;2.50;69.70;;;;;;5092486;28;20047;-69
2021/04/14 05:54:21;;;;;;;13.43;10.13;;;2.50;69.80;;;;;;5075834;28;20048;-70
2021/04/14 05:56:47;;;;;;;14.93;10.55;;;2.50;69.90;;;;;;5108890;28;20548;-70
2021/04/14 05:59:14;;;;;;;13.70;10.45;;;2.50;70.00;;;;;;5092736;28;20036;-70
2021/04/14 06:01:43;;;;;;;18.95;10.60;;;2.50;70.20;;;;;;5092108;28;20529;-70
2021/04/14 06:04:29;;;;;;;15.23;11.15;;;2.60;70.30;;;;;;5065435;28;20515;-70
2021/04/14 06:06:55;;;;;;;15.15;11.15;;;2.60;70.40;;;;;;5091670;28;20036;-70
2021/04/14 06:09:23;;;;;;;12.60;9.73;;;2.60;70.40;;;;;;5094145;28;20040;-70
2021/04/14 06:11:51;;;;;;;15.75;10.15;;;2.70;70.60;;;;;;5092853;28;20157;-70
2021/04/14 06:14:17;;;;;;;14.00;10.50;;;2.70;70.70;;;;;;5093524;28;20533;-69
2021/04/14 06:16:42;;;;;;;11.55;10.02;;;2.70;70.80;;;;;;5092342;28;20151;-70
2021/04/14 06:19:08;;;;;;;15.73;10.60;;;2.70;70.60;;;;;;5104342;28;20056;-69
2021/04/14 06:21:40;;;;;;;12.60;10.10;;;2.80;70.90;;;;;;5118418;27;20131;-70
2021/04/14 06:24:07;;;;;;;12.20;10.13;;;2.80;71.50;;;;;;5092016;28;20119;-70
2021/04/14 06:27:07;;;;;;;10.02;8.88;;;2.80;70.70;;;;;;5073554;28;20134;-69
2021/04/14 06:29:25;;;;;;;13.03;9.40;;;2.80;70.90;;;;;;5089588;28;20113;-70
2021/04/14 06:31:52;;;;;;;12.70;8.85;;;2.90;70.80;;;;;;5091703;28;20130;-70
2021/04/14 06:34:20;;;;;;;11.55;8.65;;;2.90;71.30;;;;;;5092910;28;20112;-70
2021/04/14 06:36:48;;;;;;;11.48;8.23;;;2.90;71.20;;;;;;5091600;28;20050;-69
2021/04/14 06:39:17;;;;;;;11.50;8.98;;;3.00;71.40;;;;;;5091382;28;20143;-68
2021/04/14 06:42:11;;;;;;;10.32;8.02;;;3.00;71.60;;;;;;5091241;28;20392;-70
2021/04/14 06:45:04;;;;;;;9.07;7.00;;;3.10;72.00;;;;;;5077286;28;20050;-69
2021/04/14 06:48:01;;;;;;;10.90;6.88;;;3.10;71.80;;;;;;5091794;28;20047;-70
2021/04/14 06:50:30;;;;;;;10.20;6.80;;;3.20;71.80;;;;;;5072936;28;20056;-70
2021/04/14 06:53:05;;;;;;;6.97;5.45;;;3.20;71.70;;;;;;5053439;28;20050;-70
2021/04/14 06:55:40;;;;;;;8.35;6.20;;;3.30;72.60;;;;;;5072865;28;20126;-69
2021/04/14 06:58:12;;;;;;;11.00;6.43;;;3.40;72.60;;;;;;5089263;28;20150;-72
2021/04/14 07:00:54;;;;;;;8.45;5.75;;;3.40;72.30;;;;;;5106250;28;20046;-70
2021/04/14 07:03:28;;;;;;;10.48;6.53;;;3.40;72.30;;;;;;5091052;28;20050;-72
2021/04/14 07:05:56;;;;;;;10.25;6.03;;;3.50;72.30;;;;;;5093191;28;20044;-71
2021/04/14 07:08:27;;;;;;;6.82;4.93;;;3.50;72.20;;;;;;5058388;28;20047;-70
2021/04/14 07:10:57;;;;;;;6.82;4.80;;;3.50;72.20;;;;;;5097029;28;20043;-70
2021/04/14 07:13:23;;;;;;;8.73;4.00;;;3.60;72.40;;;;;;5092055;28;20416;-71
2021/04/14 07:15:51;;;;;;;8.65;4.18;;;3.60;72.10;;;;;;5064872;28;20047;-68
2021/04/14 07:18:20;;;;;;;7.15;4.07;;;3.60;72.40;;;;;;5086274;28;20468;-67
2021/04/14 07:21:24;;;;;;;7.78;3.90;;;3.60;72.20;;;;;;5090160;28;20044;-71
2021/04/14 07:24:01;;;;;;;5.82;3.70;;;3.70;72.50;;;;;;5067348;28;20059;-70
2021/04/14 07:26:48;;;;;;;6.18;3.42;;;3.70;72.50;;;;;;5070922;28;20044;-69
2021/04/14 07:29:37;;;;;;;7.03;3.35;;;3.80;72.50;;;;;;5085919;28;20054;-71
2021/04/14 07:32:55;;;;;;;4.85;3.13;;;4.10;75.40;;;;;;5078482;28;20048;-69
2021/04/14 07:35:33;;;;;;;5.85;3.42;;;4.20;73.20;;;;;;5037803;28;20057;-68
2021/04/14 07:38:21;;;;;;;5.15;3.35;;;4.20;72.50;;;;;;5072740;28;20473;-69
2021/04/14 07:40:58;;;;;;;6.15;2.80;;;4.30;72.40;;;;;;5091013;28;20044;-71
2021/04/14 07:43:52;;;;;;;6.90;3.35;;;4.30;72.30;;;;;;5078228;28;20059;-70
2021/04/14 07:46:17;;;;;;;5.40;2.42;;;4.30;72.60;;;;;;5073783;28;20052;-69
2021/04/14 07:48:44;;;;;;;4.93;2.53;;;4.30;72.20;;;;;;5072833;28;20043;-71
2021/04/14 07:51:12;;;;;;;5.82;2.67;;;4.40;72.30;;;;;;5072380;28;20151;-68
2021/04/14 07:53:39;;;;;;;4.47;2.47;;;4.30;72.20;;;;;;5071662;28;20071;-71
2021/04/14 07:56:09;;;;;;;3.85;2.03;;;4.40;72.40;;;;;;5118399;27;20051;-69
2021/04/14 07:58:36;;;;;;;6.72;2.10;;;4.50;72.40;;;;;;5091674;28;20051;-72
2021/04/14 08:01:30;;;;;;;5.10;2.00;;;4.50;72.40;;;;;;5091263;28;20058;-74
2021/04/14 08:04:32;;;;;;;2.72;1.70;;;4.50;72.70;;;;;;5092001;28;20119;-70
2021/04/14 08:07:18;;;;;;;3.70;1.50;;;5.20;80.30;;;;;;5072266;28;20049;-85
2021/04/14 08:09:54;;;;;;;4.28;1.25;;;6.60;75.80;;;;;;5096631;28;20064;-68
2021/04/14 08:12:40;;;;;;;3.50;1.92;;;7.60;71.70;;;;;;5086589;28;20059;-68
2021/04/14 08:15:35;;;;;;;2.85;1.33;;;8.10;69.70;;;;;;5087382;28;20054;-68
2021/04/14 08:18:24;;;;;;;2.72;1.55;;;8.40;67.80;;;;;;5087865;28;20052;-68
2021/04/14 08:21:05;;;;;;;4.63;1.40;;;8.70;67.20;;;;;;5125381;27;20067;-71
2021/04/14 08:23:31;;;;;;;6.10;2.15;;;9.00;65.30;;;;;;5073265;28;20047;-69
2021/04/14 08:25:58;;;;;;;6.72;2.85;;;8.80;64.90;;;;;;5090734;28;20081;-68
2021/04/14 08:28:41;;;;;;;6.15;1.90;;;8.60;64.80;;;;;;5073130;28;20115;-69
2021/04/14 08:32:04;;;;;;;6.65;1.88;;;8.50;65.40;;;;;;5074195;28;20115;-71
2021/04/14 08:34:33;;;;;;;5.70;2.10;;;8.30;64.50;;;;;;5088217;28;20052;-71
2021/04/14 08:37:03;;;;;;;5.70;2.00;;;8.10;65.20;;;;;;5087714;28;20051;-75
2021/04/14 08:39:33;;;;;;;6.18;1.83;;;8.00;65.90;;;;;;5090873;28;20040;-68
2021/04/14 08:42:14;;;;;;;5.45;2.03;;;7.90;66.10;;;;;;5089581;28;20115;-69
2021/04/14 08:44:42;;;;;;;3.97;1.90;;;7.90;66.30;;;;;;5089725;28;20051;-70
2021/04/14 08:47:17;;;;;;;4.93;1.98;;;7.80;66.90;;;;;;5089168;28;20378;-69
2021/04/14 08:49:43;;;;;;;6.35;1.63;;;7.70;67.20;;;;;;5075380;28;20548;-69
2021/04/14 08:52:14;;;;;;;4.85;2.00;;;7.70;67.30;;;;;;5094586;28;20484;-70
2021/04/14 08:54:40;;;;;;;6.60;1.80;;;7.70;67.30;;;;;;5094988;28;20122;-69
2021/04/14 08:57:07;;;;;;;2.58;0.93;;;7.70;67.00;;;;;;5094812;28;20159;-69
2021/04/14 08:59:35;;;;;;;8.43;1.75;;;7.80;67.30;;;;;;5078694;28;20119;-69
2021/04/14 09:02:05;;;;;;;5.50;1.45;;;7.80;67.40;;;;;;5094506;28;20135;-69
2021/04/14 09:04:31;;;;;;;4.75;1.25;;;7.90;67.20;;;;;;5095826;28;20040;-69
2021/04/14 09:06:57;;;;;;;4.53;1.70;;;8.00;67.90;;;;;;5078122;28;20051;-71
2021/04/14 09:09:24;;;;;;;6.57;2.38;;;8.10;67.80;;;;;;5078145;28;20040;-69
2021/04/14 09:12:05;;;;;;;4.97;1.90;;;8.20;68.40;;;;;;5094872;28;20110;-69
2021/04/14 09:14:31;;;;;;;7.00;2.03;;;8.30;68.30;;;;;;5078249;28;20079;-68
2021/04/14 09:17:10;;;;;;;4.85;1.63;;;8.30;67.80;;;;;;5094597;28;20087;-71
2021/04/14 09:19:40;;;;;;;5.07;1.60;;;8.40;66.50;;;;;;5080099;28;20048;-70
2021/04/14 09:22:16;;;;;;;3.55;1.38;;;8.40;66.10;;;;;;5094266;28;20070;-69
2021/04/14 09:25:07;;;;;;;3.40;1.48;;;8.50;65.20;;;;;;5095935;28;20044;-68
2021/04/14 09:27:36;;;;;;;4.47;1.23;;;8.50;64.40;;;;;;5094576;28;20067;-68
2021/04/14 09:30:31;;;;;;;2.88;1.20;;;8.50;64.20;;;;;;5095422;28;20044;-72
2021/04/14 09:33:06;;;;;;;4.05;1.50;;;8.50;63.00;;;;;;5094942;28;20040;-69
2021/04/14 09:35:32;;;;;;;6.05;1.52;;;8.50;62.40;;;;;;5096065;28;20044;-69
2021/04/14 09:38:08;;;;;;;4.88;1.48;;;8.40;62.70;;;;;;5095503;28;20126;-69
2021/04/14 09:40:35;;;;;;;4.00;1.40;;;8.40;62.90;;;;;;5095558;28;20075;-69
2021/04/14 09:43:14;;;;;;;3.65;1.35;;;8.40;63.20;;;;;;5077409;28;20062;-70
2021/04/14 09:45:40;;;;;;;1.65;0.95;;;8.40;63.20;;;;;;5077664;28;20073;-69
2021/04/14 09:48:15;;;;;;;4.95;1.25;;;8.40;62.80;;;;;;5076882;28;20048;-71
2021/04/14 09:50:42;;;;;;;6.65;1.10;;;8.40;62.30;;;;;;5094535;28;20036;-69
2021/04/14 09:53:11;;;;;;;2.28;0.95;;;8.50;62.70;;;;;;5093567;28;20093;-69
2021/04/14 09:55:59;;;;;;;2.80;0.98;;;8.60;62.50;;;;;;5095596;28;20380;-69
2021/04/14 09:58:31;;;;;;;3.70;1.00;;;8.60;61.40;;;;;;5093506;28;20098;-70
2021/04/14 10:01:09;;;;;;;3.38;1.55;;;8.70;61.50;;;;;;5093514;28;20059;-69
2021/04/14 10:03:37;;;;;;;3.22;1.30;;;8.70;61.30;;;;;;5094634;28;20048;-70
2021/04/14 10:06:06;;;;;;;4.25;1.10;;;8.70;61.40;;;;;;5076885;28;20159;-70
2021/04/14 10:08:36;;;;;;;3.83;0.95;;;8.80;61.30;;;;;;5093753;28;20040;-70
2021/04/14 10:11:02;;;;;;;5.28;1.00;;;8.80;61.00;;;;;;5093413;28;20040;-69
2021/04/14 10:13:28;;;;;;;3.53;1.17;;;8.90;61.00;;;;;;5075913;28;20050;-69
2021/04/14 10:15:54;;;;;;;4.13;1.45;;;9.00;61.70;;;;;;5093022;28;20127;-69
2021/04/14 10:18:33;;;;;;;4.10;1.92;;;9.00;61.60;;;;;;5093404;28;20475;-68
2021/04/14 10:21:17;;;;;;;5.47;1.02;;;9.20;61.70;;;;;;5093738;28;20044;-70
2021/04/14 10:23:43;;;;;;;4.97;1.15;;;9.30;61.20;;;;;;5093261;28;20042;-70
2021/04/14 10:26:11;;;;;;;3.47;1.20;;;9.40;61.80;;;;;;5092261;28;20462;-71
2021/04/14 10:28:42;;;;;;;2.92;1.02;;;9.50;61.80;;;;;;5093203;28;20537;-70
2021/04/14 10:31:13;;;;;;;3.38;0.90;;;9.60;61.00;;;;;;5092715;28;20047;-71
2021/04/14 10:33:42;;;;;;;5.35;1.23;;;9.70;60.40;;;;;;5093719;28;20036;-70
2021/04/14 10:36:28;;;;;;;1.63;0.80;;;9.80;61.00;;;;;;5092841;28;20373;-72
2021/04/14 10:38:54;;;;;;;2.22;1.02;;;10.00;61.10;;;;;;5078857;28;20051;-69
2021/04/14 10:41:31;;;;;;;3.63;0.98;;;10.30;60.80;;;;;;5093224;28;20044;-69
2021/04/14 10:43:57;;;;;;;1.63;0.80;;;10.40;60.30;;;;;;5093977;28;20032;-69
2021/04/14 10:46:32;;;;;;;3.53;0.98;;;10.40;58.70;;;;;;5075653;28;20051;-69
2021/04/14 10:48:59;;;;;;;3.80;1.13;;;10.40;57.50;;;;;;5076642;28;20050;-69
2021/04/14 10:51:46;;;;;;;2.28;0.70;;;10.40;57.30;;;;;;5092350;28;20052;-68
2021/04/14 10:54:14;;;;;;;4.32;1.00;;;10.40;56.50;;;;;;5093153;28;20036;-71
2021/04/14 10:56:39;;;;;;;3.22;1.13;;;10.40;56.90;;;;;;5093228;28;20040;-69
2021/04/14 10:59:15;;;;;;;3.28;1.00;;;10.50;56.50;;;;;;5092918;28;20044;-70
2021/04/14 11:01:45;;;;;;;4.43;1.35;;;10.50;56.40;;;;;;5077323;28;20055;-69
2021/04/14 11:04:31;;;;;;;4.68;1.13;;;10.40;55.90;;;;;;5094003;28;20056;-70
2021/04/14 11:07:12;;;;;;;3.45;1.08;;;10.40;55.60;;;;;;5094074;28;20051;-68
2021/04/14 11:09:40;;;;;;;3.88;1.05;;;10.40;56.10;;;;;;5094611;28;20048;-70
2021/04/14 11:12:16;;;;;;;3.28;1.20;;;10.40;56.30;;;;;;5076873;28;20040;-70
2021/04/14 11:14:44;;;;;;;2.40;1.17;;;10.50;56.60;;;;;;5094314;28;20051;-68
2021/04/14 11:17:19;;;;;;;3.45;1.40;;;10.70;57.70;;;;;;5077456;28;20603;-68
2021/04/14 11:19:58;;;;;;;2.05;1.00;;;11.00;58.40;;;;;;5078367;28;20043;-69
2021/04/14 11:22:24;;;;;;;2.90;1.30;;;11.30;58.60;;;;;;5093968;28;20050;-70
2021/04/14 11:24:55;;;;;;;1.75;0.90;;;11.70;58.80;;;;;;5077360;28;20116;-71
2021/04/14 11:27:23;;;;;;;2.67;0.90;;;11.90;58.80;;;;;;5093837;28;20396;-69
2021/04/14 11:29:49;;;;;;;2.45;0.88;;;12.10;57.90;;;;;;5095137;28;20040;-70
2021/04/14 11:32:20;;;;;;;3.50;1.13;;;12.10;57.50;;;;;;5094043;28;20058;-70
2021/04/14 11:34:57;;;;;;;1.95;0.68;;;12.20;56.60;;;;;;5074449;28;20040;-68
2021/04/14 11:37:34;;;;;;;3.00;0.90;;;12.10;54.90;;;;;;5090130;28;20123;-70
2021/04/14 11:40:08;;;;;;;3.25;0.80;;;12.10;54.90;;;;;;5075379;28;20044;-70
2021/04/14 11:42:53;;;;;;;1.48;0.77;;;12.10;54.50;;;;;;5090092;28;20044;-70
2021/04/14 11:45:40;;;;;;;2.88;0.90;;;12.30;54.00;;;;;;5075009;28;20099;-70
2021/04/14 11:48:10;;;;;;;3.58;1.38;;;12.50;53.40;;;;;;5090387;28;20127;-71
2021/04/14 11:50:36;;;;;;;2.97;1.00;;;12.60;53.70;;;;;;5089645;28;20036;-70
2021/04/14 11:53:02;;;;;;;6.72;1.15;;;12.80;54.10;;;;;;5090732;28;20040;-70
2021/04/14 11:55:36;;;;;;;3.45;1.42;;;13.10;54.20;;;;;;5089855;28;20043;-70
2021/04/14 11:58:02;;;;;;;2.60;1.00;;;13.40;53.40;;;;;;5073815;28;20040;-70
2021/04/14 12:00:39;;;;;;;2.03;0.88;;;13.70;52.50;;;;;;5091119;28;20040;-70
2021/04/14 12:03:20;;;;;;;4.07;1.00;;;13.90;51.20;;;;;;5090998;28;20123;-70
2021/04/14 12:05:54;;;;;;;3.60;0.80;;;14.10;51.10;;;;;;5090434;28;20032;-70
2021/04/14 12:08:20;;;;;;;1.88;0.80;;;14.50;50.70;;;;;;5090614;28;20071;-71
2021/04/14 12:10:46;;;;;;;1.45;0.80;;;14.70;49.40;;;;;;5090156;28;20079;-70
2021/04/14 12:13:11;;;;;;;2.67;0.70;;;14.70;48.60;;;;;;5090115;28;20044;-70
2021/04/14 12:15:37;;;;;;;2.65;0.60;;;14.70;48.30;;;;;;5089464;28;20044;-70
2021/04/14 12:18:03;;;;;;;2.70;0.85;;;14.60;48.00;;;;;;5091553;28;20072;-70
2021/04/14 12:20:29;;;;;;;2.38;0.68;;;14.70;48.10;;;;;;5089368;28;20127;-71
2021/04/14 12:22:55;;;;;;;1.30;0.40;;;14.90;47.70;;;;;;5090353;28;20040;-70
2021/04/14 12:25:20;;;;;;;2.38;0.70;;;15.00;47.50;;;;;;5088725;28;20044;-72
2021/04/14 12:27:46;;;;;;;1.88;0.70;;;15.00;47.00;;;;;;5089963;28;20040;-71
2021/04/14 12:30:14;;;;;;;2.63;0.82;;;14.90;46.60;;;;;;5090214;28;20036;-71
2021/04/14 12:32:40;;;;;;;1.60;0.80;;;14.70;46.00;;;;;;5089444;28;20123;-71
2021/04/14 12:35:06;;;;;;;1.52;0.40;;;14.50;45.80;;;;;;5056834;28;20048;-70
2021/04/14 12:37:32;;;;;;;0.65;0.30;;;14.40;46.00;;;;;;5090596;28;20392;-69
2021/04/14 12:39:58;;;;;;;2.58;0.50;;;14.30;46.00;;;;;;5090013;28;20040;-70
2021/04/14 12:42:25;;;;;;;0.77;0.40;;;14.20;46.00;;;;;;5090488;28;20048;-71
2021/04/14 12:44:52;;;;;;;2.53;0.40;;;14.10;45.80;;;;;;5089713;28;20051;-70
2021/04/14 12:47:20;;;;;;;1.35;0.50;;;14.00;46.00;;;;;;5089905;28;20122;-71
2021/04/14 12:49:48;;;;;;;0.80;0.55;;;13.80;45.20;;;;;;5088888;28;20122;-70
2021/04/14 12:52:31;;;;;;;1.88;0.60;;;13.80;45.40;;;;;;5090616;28;20095;-71
2021/04/14 12:54:57;;;;;;;1.45;0.50;;;13.80;45.60;;;;;;5089408;28;20040;-71
2021/04/14 12:57:26;;;;;;;1.27;0.60;;;13.80;45.70;;;;;;5089518;28;20044;-72
2021/04/14 13:00:05;;;;;;;1.35;0.60;;;13.90;45.50;;;;;;5089985;28;20040;-70
2021/04/14 13:02:51;;;;;;;0.47;0.40;;;13.90;45.30;;;;;;5089348;28;20044;-72
2021/04/14 13:05:29;;;;;;;3.38;1.02;;;14.00;45.30;;;;;;5089784;28;20032;-70
2021/04/14 13:07:59;;;;;;;1.85;0.60;;;14.00;44.70;;;;;;5073805;28;20068;-69